sensor_id;sensor_type;location;lat;lon;timestamp;P1;durP1;ratioP1;P2;durP2;ratioP2
68910;SDS011;55953;51.650;-0.522;2023-02-26T00:01:44;10.10;;;2.10;;
68910;SDS011;55953;51.650;-0.522;2023-02-26T00:04:13;15.50;;;3.30;;
68910;SDS011;55953;51.650;-0.522;2023-02-26T00:06:41;9.20;;;2.80;;
68910;SDS011;55953;51.650;-0.522;2023-02-26T00:09:22;8.20;;;2.30;;
68910;SDS011;55953;51.650;-0.522;2023-02-26T00:11:51;11.70;;;3.00;;
68910;SDS011;55953;51.650;-0.522;2023-02-26T00:14:20;13.00;;;2.80;;
68910;SDS011;55953;51.650;-0.522;2023-02-26T00:20:28;11.60;;;2.80;;
68910;SDS011;55953;51.650;-0.522;2023-02-26T00:22:56;9.20;;;2.60;;
68910;SDS011;55953;51.650;-0.522;2023-02-26T00:25:24;15.10;;;3.00;;
68910;SDS011;55953;51.650;-0.522;2023-02-26T00:27:53;8.10;;;3.00;;
68910;SDS011;55953;51.650;-0.522;2023-02-26T00:30:21;11.00;;;2.30;;
68910;SDS011;55953;51.650;-0.522;2023-02-26T00:32:50;12.20;;;2.50;;
68910;SDS011;55953;51.650;-0.522;2023-02-26T00:35:18;14.30;;;2.60;;
68910;SDS011;55953;51.650;-0.522;2023-02-26T00:38:08;10.20;;;2.50;;
68910;SDS011;55953;51.650;-0.522;2023-02-26T00:40:48;14.20;;;2.50;;
68910;SDS011;55953;51.650;-0.522;2023-02-26T00:43:19;12.30;;;2.20;;
68910;SDS011;55953;51.650;-0.522;2023-02-26T00:52:07;15.40;;;2.60;;
68910;SDS011;55953;51.650;-0.522;2023-02-26T00:54:40;11.70;;;2.40;;
68910;SDS011;55953;51.650;-0.522;2023-02-26T00:57:08;9.80;;;2.10;;
68910;SDS011;55953;51.650;-0.522;2023-02-26T00:59:36;12.30;;;1.90;;
68910;SDS011;55953;51.650;-0.522;2023-02-26T01:02:04;6.40;;;2.50;;
68910;SDS011;55953;51.650;-0.522;2023-02-26T01:04:32;12.20;;;2.10;;
68910;SDS011;55953;51.650;-0.522;2023-02-26T01:07:00;11.40;;;2.30;;
68910;SDS011;55953;51.650;-0.522;2023-02-26T01:12:07;12.40;;;2.90;;
68910;SDS011;55953;51.650;-0.522;2023-02-26T01:14:40;12.40;;;2.20;;
68910;SDS011;55953;51.650;-0.522;2023-02-26T01:17:20;6.80;;;2.10;;
68910;SDS011;55953;51.650;-0.522;2023-02-26T01:22:41;11.70;;;2.40;;
68910;SDS011;55953;51.650;-0.522;2023-02-26T01:27:51;9.00;;;2.00;;
68910;SDS011;55953;51.650;-0.522;2023-02-26T01:30:19;10.90;;;2.90;;
68910;SDS011;55953;51.650;-0.522;2023-02-26T01:32:56;10.70;;;1.80;;
68910;SDS011;55953;51.650;-0.522;2023-02-26T01:38:52;11.10;;;2.00;;
68910;SDS011;55953;51.650;-0.522;2023-02-26T01:50:17;6.10;;;1.50;;
68910;SDS011;55953;51.650;-0.522;2023-02-26T01:55:19;7.80;;;2.20;;
68910;SDS011;55953;51.650;-0.522;2023-02-26T01:57:52;10.80;;;1.80;;
68910;SDS011;55953;51.650;-0.522;2023-02-26T02:00:22;8.10;;;1.70;;
68910;SDS011;55953;51.650;-0.522;2023-02-26T02:02:53;8.80;;;1.70;;
68910;SDS011;55953;51.650;-0.522;2023-02-26T02:05:31;9.30;;;2.10;;
68910;SDS011;55953;51.650;-0.522;2023-02-26T02:08:02;7.80;;;1.80;;
68910;SDS011;55953;51.650;-0.522;2023-02-26T02:10:30;8.90;;;1.70;;
68910;SDS011;55953;51.650;-0.522;2023-02-26T02:16:36;5.10;;;1.20;;
68910;SDS011;55953;51.650;-0.522;2023-02-26T02:22:00;7.10;;;1.60;;
68910;SDS011;55953;51.650;-0.522;2023-02-26T02:31:23;4.00;;;1.40;;
68910;SDS011;55953;51.650;-0.522;2023-02-26T02:34:18;6.20;;;1.70;;
68910;SDS011;55953;51.650;-0.522;2023-02-26T02:39:46;9.90;;;1.70;;
68910;SDS011;55953;51.650;-0.522;2023-02-26T02:42:23;8.50;;;2.00;;
68910;SDS011;55953;51.650;-0.522;2023-02-26T02:47:56;8.80;;;1.80;;
68910;SDS011;55953;51.650;-0.522;2023-02-26T02:50:38;8.40;;;2.50;;
68910;SDS011;55953;51.650;-0.522;2023-02-26T02:53:19;9.50;;;2.30;;
68910;SDS011;55953;51.650;-0.522;2023-02-26T02:56:14;5.80;;;1.80;;
68910;SDS011;55953;51.650;-0.522;2023-02-26T02:58:50;7.00;;;1.90;;
68910;SDS011;55953;51.650;-0.522;2023-02-26T03:01:26;10.00;;;2.10;;
68910;SDS011;55953;51.650;-0.522;2023-02-26T03:04:07;12.80;;;2.10;;
68910;SDS011;55953;51.650;-0.522;2023-02-26T03:06:38;6.00;;;1.60;;
68910;SDS011;55953;51.650;-0.522;2023-02-26T03:09:08;7.10;;;2.20;;
68910;SDS011;55953;51.650;-0.522;2023-02-26T03:11:40;7.50;;;2.10;;
68910;SDS011;55953;51.650;-0.522;2023-02-26T03:14:09;7.70;;;2.00;;
68910;SDS011;55953;51.650;-0.522;2023-02-26T03:26:18;13.20;;;2.00;;
68910;SDS011;55953;51.650;-0.522;2023-02-26T03:28:40;6.40;;;1.70;;
68910;SDS011;55953;51.650;-0.522;2023-02-26T03:31:26;5.70;;;1.80;;
68910;SDS011;55953;51.650;-0.522;2023-02-26T03:34:20;5.80;;;1.50;;
68910;SDS011;55953;51.650;-0.522;2023-02-26T03:37:10;7.30;;;1.70;;
68910;SDS011;55953;51.650;-0.522;2023-02-26T03:39:50;9.70;;;2.20;;
68910;SDS011;55953;51.650;-0.522;2023-02-26T03:42:31;10.30;;;1.90;;
68910;SDS011;55953;51.650;-0.522;2023-02-26T03:45:17;12.20;;;2.70;;
68910;SDS011;55953;51.650;-0.522;2023-02-26T03:47:51;5.80;;;1.70;;
68910;SDS011;55953;51.650;-0.522;2023-02-26T03:53:18;8.00;;;2.20;;
68910;SDS011;55953;51.650;-0.522;2023-02-26T03:59:00;10.50;;;2.80;;
68910;SDS011;55953;51.650;-0.522;2023-02-26T04:02:04;9.90;;;2.10;;
68910;SDS011;55953;51.650;-0.522;2023-02-26T04:07:21;8.40;;;1.90;;
68910;SDS011;55953;51.650;-0.522;2023-02-26T04:09:50;10.00;;;2.30;;
68910;SDS011;55953;51.650;-0.522;2023-02-26T04:12:25;7.30;;;2.00;;
68910;SDS011;55953;51.650;-0.522;2023-02-26T04:14:56;10.70;;;1.90;;
68910;SDS011;55953;51.650;-0.522;2023-02-26T04:17:24;8.40;;;1.90;;
68910;SDS011;55953;51.650;-0.522;2023-02-26T04:19:52;9.00;;;2.10;;
68910;SDS011;55953;51.650;-0.522;2023-02-26T04:22:20;7.30;;;1.80;;
68910;SDS011;55953;51.650;-0.522;2023-02-26T04:24:48;8.30;;;1.90;;
68910;SDS011;55953;51.650;-0.522;2023-02-26T04:27:16;7.80;;;1.60;;
68910;SDS011;55953;51.650;-0.522;2023-02-26T04:29:44;10.00;;;1.80;;
68910;SDS011;55953;51.650;-0.522;2023-02-26T04:32:12;11.80;;;2.10;;
68910;SDS011;55953;51.650;-0.522;2023-02-26T04:34:40;6.80;;;1.90;;
68910;SDS011;55953;51.650;-0.522;2023-02-26T04:37:09;11.40;;;2.50;;
68910;SDS011;55953;51.650;-0.522;2023-02-26T04:39:37;9.80;;;1.70;;
68910;SDS011;55953;51.650;-0.522;2023-02-26T04:42:05;11.20;;;1.90;;
68910;SDS011;55953;51.650;-0.522;2023-02-26T04:44:34;7.30;;;1.50;;
68910;SDS011;55953;51.650;-0.522;2023-02-26T04:47:02;12.40;;;1.90;;
68910;SDS011;55953;51.650;-0.522;2023-02-26T04:49:30;7.70;;;1.40;;
68910;SDS011;55953;51.650;-0.522;2023-02-26T04:51:58;6.50;;;1.50;;
68910;SDS011;55953;51.650;-0.522;2023-02-26T04:54:26;13.40;;;2.20;;
68910;SDS011;55953;51.650;-0.522;2023-02-26T04:56:55;9.00;;;1.50;;
68910;SDS011;55953;51.650;-0.522;2023-02-26T04:59:23;7.70;;;2.40;;
68910;SDS011;55953;51.650;-0.522;2023-02-26T05:01:50;8.20;;;1.90;;
68910;SDS011;55953;51.650;-0.522;2023-02-26T05:04:18;10.10;;;1.80;;
68910;SDS011;55953;51.650;-0.522;2023-02-26T05:06:50;11.00;;;1.80;;
68910;SDS011;55953;51.650;-0.522;2023-02-26T05:09:19;6.80;;;1.80;;
68910;SDS011;55953;51.650;-0.522;2023-02-26T05:11:48;6.90;;;1.70;;
68910;SDS011;55953;51.650;-0.522;2023-02-26T05:14:16;15.70;;;1.80;;
68910;SDS011;55953;51.650;-0.522;2023-02-26T05:16:44;9.40;;;1.80;;
68910;SDS011;55953;51.650;-0.522;2023-02-26T05:19:12;6.00;;;1.30;;
68910;SDS011;55953;51.650;-0.522;2023-02-26T05:21:40;6.90;;;1.80;;
68910;SDS011;55953;51.650;-0.522;2023-02-26T05:24:08;8.30;;;1.50;;
68910;SDS011;55953;51.650;-0.522;2023-02-26T05:26:36;11.10;;;2.00;;
68910;SDS011;55953;51.650;-0.522;2023-02-26T05:29:03;10.30;;;1.70;;
68910;SDS011;55953;51.650;-0.522;2023-02-26T05:31:33;9.80;;;1.80;;
68910;SDS011;55953;51.650;-0.522;2023-02-26T05:34:01;8.70;;;1.80;;
68910;SDS011;55953;51.650;-0.522;2023-02-26T05:36:29;9.80;;;1.80;;
68910;SDS011;55953;51.650;-0.522;2023-02-26T05:38:57;6.90;;;1.90;;
68910;SDS011;55953;51.650;-0.522;2023-02-26T05:41:24;10.50;;;1.70;;
68910;SDS011;55953;51.650;-0.522;2023-02-26T05:43:52;11.10;;;2.60;;
68910;SDS011;55953;51.650;-0.522;2023-02-26T05:46:20;11.30;;;1.60;;
68910;SDS011;55953;51.650;-0.522;2023-02-26T05:48:48;12.00;;;2.20;;
68910;SDS011;55953;51.650;-0.522;2023-02-26T05:51:16;7.20;;;1.70;;
68910;SDS011;55953;51.650;-0.522;2023-02-26T05:53:44;10.30;;;1.50;;
68910;SDS011;55953;51.650;-0.522;2023-02-26T05:56:12;7.40;;;1.70;;
68910;SDS011;55953;51.650;-0.522;2023-02-26T05:58:41;10.40;;;1.70;;
68910;SDS011;55953;51.650;-0.522;2023-02-26T06:01:09;6.60;;;1.60;;
68910;SDS011;55953;51.650;-0.522;2023-02-26T06:03:37;5.60;;;1.50;;
68910;SDS011;55953;51.650;-0.522;2023-02-26T06:06:12;8.70;;;1.50;;
68910;SDS011;55953;51.650;-0.522;2023-02-26T06:08:45;10.90;;;2.30;;
68910;SDS011;55953;51.650;-0.522;2023-02-26T06:11:14;9.80;;;1.40;;
68910;SDS011;55953;51.650;-0.522;2023-02-26T06:13:41;11.40;;;1.50;;
68910;SDS011;55953;51.650;-0.522;2023-02-26T06:16:09;8.00;;;1.40;;
68910;SDS011;55953;51.650;-0.522;2023-02-26T06:18:37;8.70;;;2.00;;
68910;SDS011;55953;51.650;-0.522;2023-02-26T06:21:05;8.50;;;1.30;;
68910;SDS011;55953;51.650;-0.522;2023-02-26T06:23:33;12.90;;;2.10;;
68910;SDS011;55953;51.650;-0.522;2023-02-26T06:26:01;7.80;;;1.60;;
68910;SDS011;55953;51.650;-0.522;2023-02-26T06:28:29;3.90;;;1.30;;
68910;SDS011;55953;51.650;-0.522;2023-02-26T06:30:57;8.10;;;1.90;;
68910;SDS011;55953;51.650;-0.522;2023-02-26T06:33:25;6.20;;;1.80;;
68910;SDS011;55953;51.650;-0.522;2023-02-26T06:35:53;6.00;;;2.00;;
68910;SDS011;55953;51.650;-0.522;2023-02-26T06:38:22;8.10;;;1.70;;
68910;SDS011;55953;51.650;-0.522;2023-02-26T06:40:50;12.40;;;2.00;;
68910;SDS011;55953;51.650;-0.522;2023-02-26T06:43:18;9.90;;;2.30;;
68910;SDS011;55953;51.650;-0.522;2023-02-26T06:45:46;3.80;;;1.60;;
68910;SDS011;55953;51.650;-0.522;2023-02-26T06:48:15;10.50;;;1.60;;
68910;SDS011;55953;51.650;-0.522;2023-02-26T06:50:43;12.20;;;2.10;;
68910;SDS011;55953;51.650;-0.522;2023-02-26T06:53:11;9.70;;;1.90;;
68910;SDS011;55953;51.650;-0.522;2023-02-26T06:55:43;6.40;;;1.50;;
68910;SDS011;55953;51.650;-0.522;2023-02-26T06:58:12;6.70;;;1.80;;
68910;SDS011;55953;51.650;-0.522;2023-02-26T07:00:40;11.40;;;2.20;;
68910;SDS011;55953;51.650;-0.522;2023-02-26T07:03:12;9.90;;;2.10;;
68910;SDS011;55953;51.650;-0.522;2023-02-26T07:05:42;9.70;;;1.80;;
68910;SDS011;55953;51.650;-0.522;2023-02-26T07:08:12;8.80;;;2.00;;
68910;SDS011;55953;51.650;-0.522;2023-02-26T07:10:40;10.30;;;2.30;;
68910;SDS011;55953;51.650;-0.522;2023-02-26T07:13:09;7.60;;;2.30;;
68910;SDS011;55953;51.650;-0.522;2023-02-26T07:15:37;9.90;;;2.00;;
68910;SDS011;55953;51.650;-0.522;2023-02-26T07:18:04;10.20;;;2.10;;
68910;SDS011;55953;51.650;-0.522;2023-02-26T07:20:33;7.80;;;1.80;;
68910;SDS011;55953;51.650;-0.522;2023-02-26T07:23:01;7.50;;;1.70;;
68910;SDS011;55953;51.650;-0.522;2023-02-26T07:25:29;6.90;;;1.80;;
68910;SDS011;55953;51.650;-0.522;2023-02-26T07:27:57;7.10;;;2.10;;
68910;SDS011;55953;51.650;-0.522;2023-02-26T07:30:26;8.50;;;2.10;;
68910;SDS011;55953;51.650;-0.522;2023-02-26T07:32:54;6.60;;;1.80;;
68910;SDS011;55953;51.650;-0.522;2023-02-26T07:35:22;7.90;;;1.70;;
68910;SDS011;55953;51.650;-0.522;2023-02-26T07:37:51;8.10;;;1.50;;
68910;SDS011;55953;51.650;-0.522;2023-02-26T07:40:19;6.20;;;2.00;;
68910;SDS011;55953;51.650;-0.522;2023-02-26T07:42:47;7.80;;;1.80;;
68910;SDS011;55953;51.650;-0.522;2023-02-26T07:45:15;8.70;;;1.90;;
68910;SDS011;55953;51.650;-0.522;2023-02-26T07:47:50;4.90;;;1.70;;
68910;SDS011;55953;51.650;-0.522;2023-02-26T07:50:19;8.60;;;2.00;;
68910;SDS011;55953;51.650;-0.522;2023-02-26T07:52:47;9.20;;;1.70;;
68910;SDS011;55953;51.650;-0.522;2023-02-26T07:55:15;9.60;;;1.80;;
68910;SDS011;55953;51.650;-0.522;2023-02-26T07:57:43;8.90;;;1.90;;
68910;SDS011;55953;51.650;-0.522;2023-02-26T08:00:12;6.80;;;1.60;;
68910;SDS011;55953;51.650;-0.522;2023-02-26T08:02:41;7.70;;;1.50;;
68910;SDS011;55953;51.650;-0.522;2023-02-26T08:05:09;6.90;;;1.70;;
68910;SDS011;55953;51.650;-0.522;2023-02-26T08:07:37;8.40;;;1.60;;
68910;SDS011;55953;51.650;-0.522;2023-02-26T08:10:05;7.20;;;1.90;;
68910;SDS011;55953;51.650;-0.522;2023-02-26T08:12:33;7.10;;;2.00;;
68910;SDS011;55953;51.650;-0.522;2023-02-26T08:15:04;5.30;;;1.70;;
68910;SDS011;55953;51.650;-0.522;2023-02-26T08:17:32;8.80;;;1.90;;
68910;SDS011;55953;51.650;-0.522;2023-02-26T08:20:00;5.50;;;1.60;;
68910;SDS011;55953;51.650;-0.522;2023-02-26T08:22:28;6.00;;;1.80;;
68910;SDS011;55953;51.650;-0.522;2023-02-26T08:24:56;6.50;;;1.60;;
68910;SDS011;55953;51.650;-0.522;2023-02-26T08:27:24;7.80;;;1.50;;
68910;SDS011;55953;51.650;-0.522;2023-02-26T08:29:53;11.40;;;2.10;;
68910;SDS011;55953;51.650;-0.522;2023-02-26T08:32:20;5.50;;;1.60;;
68910;SDS011;55953;51.650;-0.522;2023-02-26T08:34:49;9.10;;;1.50;;
68910;SDS011;55953;51.650;-0.522;2023-02-26T08:37:17;5.00;;;1.20;;
68910;SDS011;55953;51.650;-0.522;2023-02-26T08:39:49;6.80;;;1.60;;
68910;SDS011;55953;51.650;-0.522;2023-02-26T08:42:17;6.40;;;1.60;;
68910;SDS011;55953;51.650;-0.522;2023-02-26T08:44:47;10.00;;;1.80;;
68910;SDS011;55953;51.650;-0.522;2023-02-26T08:47:14;6.40;;;1.80;;
68910;SDS011;55953;51.650;-0.522;2023-02-26T08:49:54;7.60;;;1.30;;
68910;SDS011;55953;51.650;-0.522;2023-02-26T08:52:22;7.00;;;1.50;;
68910;SDS011;55953;51.650;-0.522;2023-02-26T08:54:51;7.50;;;1.50;;
68910;SDS011;55953;51.650;-0.522;2023-02-26T08:57:19;7.40;;;1.80;;
68910;SDS011;55953;51.650;-0.522;2023-02-26T08:59:47;6.10;;;1.40;;
68910;SDS011;55953;51.650;-0.522;2023-02-26T09:02:14;7.50;;;1.60;;
68910;SDS011;55953;51.650;-0.522;2023-02-26T09:04:43;6.80;;;1.40;;
68910;SDS011;55953;51.650;-0.522;2023-02-26T09:07:10;5.80;;;1.10;;
68910;SDS011;55953;51.650;-0.522;2023-02-26T09:09:38;9.30;;;1.60;;
68910;SDS011;55953;51.650;-0.522;2023-02-26T09:12:06;5.30;;;1.70;;
68910;SDS011;55953;51.650;-0.522;2023-02-26T09:14:34;5.50;;;1.30;;
68910;SDS011;55953;51.650;-0.522;2023-02-26T09:17:02;6.00;;;1.40;;
68910;SDS011;55953;51.650;-0.522;2023-02-26T09:19:30;6.80;;;1.10;;
68910;SDS011;55953;51.650;-0.522;2023-02-26T09:21:58;4.60;;;1.30;;
68910;SDS011;55953;51.650;-0.522;2023-02-26T09:24:26;9.40;;;1.40;;
68910;SDS011;55953;51.650;-0.522;2023-02-26T09:26:54;5.10;;;1.20;;
68910;SDS011;55953;51.650;-0.522;2023-02-26T09:29:22;8.50;;;1.60;;
68910;SDS011;55953;51.650;-0.522;2023-02-26T09:31:49;5.40;;;1.30;;
68910;SDS011;55953;51.650;-0.522;2023-02-26T09:34:17;4.90;;;1.30;;
68910;SDS011;55953;51.650;-0.522;2023-02-26T09:36:47;5.30;;;1.30;;
68910;SDS011;55953;51.650;-0.522;2023-02-26T09:39:14;6.80;;;1.50;;
68910;SDS011;55953;51.650;-0.522;2023-02-26T09:41:49;8.40;;;1.20;;
68910;SDS011;55953;51.650;-0.522;2023-02-26T09:44:23;4.00;;;0.90;;
68910;SDS011;55953;51.650;-0.522;2023-02-26T09:46:56;6.80;;;1.00;;
68910;SDS011;55953;51.650;-0.522;2023-02-26T09:50:04;5.20;;;0.90;;
68910;SDS011;55953;51.650;-0.522;2023-02-26T09:55:48;4.60;;;0.90;;
68910;SDS011;55953;51.650;-0.522;2023-02-26T09:58:27;6.00;;;1.30;;
68910;SDS011;55953;51.650;-0.522;2023-02-26T10:01:27;6.60;;;1.00;;
68910;SDS011;55953;51.650;-0.522;2023-02-26T10:04:22;6.70;;;1.00;;
68910;SDS011;55953;51.650;-0.522;2023-02-26T10:09:58;7.50;;;1.40;;
68910;SDS011;55953;51.650;-0.522;2023-02-26T10:12:43;4.80;;;0.90;;
68910;SDS011;55953;51.650;-0.522;2023-02-26T10:15:25;8.30;;;1.00;;
68910;SDS011;55953;51.650;-0.522;2023-02-26T10:18:10;5.30;;;1.00;;
68910;SDS011;55953;51.650;-0.522;2023-02-26T10:26:24;5.50;;;1.20;;
68910;SDS011;55953;51.650;-0.522;2023-02-26T10:40:36;4.70;;;0.80;;
68910;SDS011;55953;51.650;-0.522;2023-02-26T10:43:22;4.40;;;0.80;;
68910;SDS011;55953;51.650;-0.522;2023-02-26T10:52:24;6.40;;;0.90;;
68910;SDS011;55953;51.650;-0.522;2023-02-26T10:55:31;4.30;;;1.10;;
68910;SDS011;55953;51.650;-0.522;2023-02-26T10:58:15;6.10;;;0.90;;
68910;SDS011;55953;51.650;-0.522;2023-02-26T11:00:48;5.10;;;1.00;;
68910;SDS011;55953;51.650;-0.522;2023-02-26T11:03:37;3.80;;;0.90;;
68910;SDS011;55953;51.650;-0.522;2023-02-26T11:06:17;5.00;;;1.30;;
68910;SDS011;55953;51.650;-0.522;2023-02-26T11:08:53;5.30;;;0.90;;
68910;SDS011;55953;51.650;-0.522;2023-02-26T11:11:50;7.50;;;1.10;;
68910;SDS011;55953;51.650;-0.522;2023-02-26T11:14:32;3.30;;;0.70;;
68910;SDS011;55953;51.650;-0.522;2023-02-26T11:17:03;5.50;;;1.10;;
68910;SDS011;55953;51.650;-0.522;2023-02-26T11:19:40;3.20;;;0.70;;
68910;SDS011;55953;51.650;-0.522;2023-02-26T11:22:15;4.30;;;1.00;;
68910;SDS011;55953;51.650;-0.522;2023-02-26T11:24:48;2.80;;;0.80;;
68910;SDS011;55953;51.650;-0.522;2023-02-26T11:27:37;3.80;;;0.90;;
68910;SDS011;55953;51.650;-0.522;2023-02-26T11:30:14;4.40;;;0.80;;
68910;SDS011;55953;51.650;-0.522;2023-02-26T11:32:49;4.30;;;0.90;;
68910;SDS011;55953;51.650;-0.522;2023-02-26T11:35:22;5.30;;;0.90;;
68910;SDS011;55953;51.650;-0.522;2023-02-26T11:37:56;4.10;;;0.70;;
68910;SDS011;55953;51.650;-0.522;2023-02-26T11:40:34;4.00;;;1.00;;
68910;SDS011;55953;51.650;-0.522;2023-02-26T11:43:08;5.60;;;1.00;;
68910;SDS011;55953;51.650;-0.522;2023-02-26T11:45:42;2.00;;;0.70;;
68910;SDS011;55953;51.650;-0.522;2023-02-26T11:48:20;2.50;;;0.50;;
68910;SDS011;55953;51.650;-0.522;2023-02-26T11:50:55;2.30;;;0.60;;
68910;SDS011;55953;51.650;-0.522;2023-02-26T11:56:11;4.10;;;0.80;;
68910;SDS011;55953;51.650;-0.522;2023-02-26T11:58:44;2.00;;;0.70;;
68910;SDS011;55953;51.650;-0.522;2023-02-26T12:01:15;3.50;;;0.70;;
68910;SDS011;55953;51.650;-0.522;2023-02-26T12:03:47;2.00;;;0.80;;
68910;SDS011;55953;51.650;-0.522;2023-02-26T12:06:19;4.10;;;0.80;;
68910;SDS011;55953;51.650;-0.522;2023-02-26T12:08:51;2.80;;;0.80;;
68910;SDS011;55953;51.650;-0.522;2023-02-26T12:11:39;4.30;;;1.00;;
68910;SDS011;55953;51.650;-0.522;2023-02-26T12:14:25;4.90;;;0.90;;
68910;SDS011;55953;51.650;-0.522;2023-02-26T12:39:39;4.80;;;1.00;;
68910;SDS011;55953;51.650;-0.522;2023-02-26T12:52:02;2.10;;;0.80;;
68910;SDS011;55953;51.650;-0.522;2023-02-26T12:57:54;2.30;;;0.80;;
68910;SDS011;55953;51.650;-0.522;2023-02-26T13:04:04;4.20;;;0.90;;
68910;SDS011;55953;51.650;-0.522;2023-02-26T13:09:40;2.70;;;0.90;;
68910;SDS011;55953;51.650;-0.522;2023-02-26T13:12:34;3.20;;;0.90;;
68910;SDS011;55953;51.650;-0.522;2023-02-26T13:18:31;3.60;;;0.90;;
68910;SDS011;55953;51.650;-0.522;2023-02-26T13:21:08;2.20;;;0.90;;
68910;SDS011;55953;51.650;-0.522;2023-02-26T13:23:48;3.40;;;1.00;;
68910;SDS011;55953;51.650;-0.522;2023-02-26T13:26:20;3.60;;;1.20;;
68910;SDS011;55953;51.650;-0.522;2023-02-26T13:28:56;7.10;;;1.30;;
68910;SDS011;55953;51.650;-0.522;2023-02-26T13:31:44;5.10;;;1.50;;
68910;SDS011;55953;51.650;-0.522;2023-02-26T13:37:31;3.90;;;0.90;;
68910;SDS011;55953;51.650;-0.522;2023-02-26T13:43:04;4.50;;;0.90;;
68910;SDS011;55953;51.650;-0.522;2023-02-26T13:48:21;2.40;;;0.80;;
68910;SDS011;55953;51.650;-0.522;2023-02-26T13:51:13;4.60;;;1.00;;
68910;SDS011;55953;51.650;-0.522;2023-02-26T13:53:52;5.50;;;0.70;;
68910;SDS011;55953;51.650;-0.522;2023-02-26T14:06:54;3.20;;;0.90;;
68910;SDS011;55953;51.650;-0.522;2023-02-26T14:09:35;2.90;;;1.00;;
68910;SDS011;55953;51.650;-0.522;2023-02-26T14:12:41;1.10;;;0.90;;
68910;SDS011;55953;51.650;-0.522;2023-02-26T14:15:26;3.30;;;0.90;;
68910;SDS011;55953;51.650;-0.522;2023-02-26T14:18:04;4.70;;;1.00;;
68910;SDS011;55953;51.650;-0.522;2023-02-26T14:20:45;2.40;;;0.90;;
68910;SDS011;55953;51.650;-0.522;2023-02-26T14:23:39;3.30;;;1.30;;
68910;SDS011;55953;51.650;-0.522;2023-02-26T14:26:15;3.70;;;1.00;;
68910;SDS011;55953;51.650;-0.522;2023-02-26T14:28:55;5.10;;;1.00;;
68910;SDS011;55953;51.650;-0.522;2023-02-26T14:31:53;1.80;;;0.80;;
68910;SDS011;55953;51.650;-0.522;2023-02-26T14:34:34;2.50;;;0.90;;
68910;SDS011;55953;51.650;-0.522;2023-02-26T14:37:16;3.00;;;1.10;;
68910;SDS011;55953;51.650;-0.522;2023-02-26T14:40:15;4.90;;;0.80;;
68910;SDS011;55953;51.650;-0.522;2023-02-26T14:42:45;1.70;;;0.90;;
68910;SDS011;55953;51.650;-0.522;2023-02-26T14:45:33;3.80;;;1.00;;
68910;SDS011;55953;51.650;-0.522;2023-02-26T14:48:06;2.20;;;0.90;;
68910;SDS011;55953;51.650;-0.522;2023-02-26T14:50:54;3.90;;;0.90;;
68910;SDS011;55953;51.650;-0.522;2023-02-26T15:12:40;3.40;;;1.10;;
68910;SDS011;55953;51.650;-0.522;2023-02-26T15:15:33;2.50;;;1.00;;
68910;SDS011;55953;51.650;-0.522;2023-02-26T15:24:02;1.90;;;0.70;;
68910;SDS011;55953;51.650;-0.522;2023-02-26T15:26:33;4.00;;;0.80;;
68910;SDS011;55953;51.650;-0.522;2023-02-26T15:29:06;1.40;;;0.70;;
68910;SDS011;55953;51.650;-0.522;2023-02-26T15:31:52;3.50;;;1.20;;
68910;SDS011;55953;51.650;-0.522;2023-02-26T15:34:22;1.60;;;0.80;;
68910;SDS011;55953;51.650;-0.522;2023-02-26T15:36:51;5.20;;;0.90;;
68910;SDS011;55953;51.650;-0.522;2023-02-26T15:39:23;2.30;;;0.90;;
68910;SDS011;55953;51.650;-0.522;2023-02-26T15:41:53;2.60;;;1.00;;
68910;SDS011;55953;51.650;-0.522;2023-02-26T15:44:30;2.50;;;0.80;;
68910;SDS011;55953;51.650;-0.522;2023-02-26T15:47:01;4.10;;;1.00;;
68910;SDS011;55953;51.650;-0.522;2023-02-26T15:49:42;2.60;;;0.90;;
68910;SDS011;55953;51.650;-0.522;2023-02-26T15:52:18;4.10;;;1.00;;
68910;SDS011;55953;51.650;-0.522;2023-02-26T15:54:55;1.80;;;0.90;;
68910;SDS011;55953;51.650;-0.522;2023-02-26T15:57:27;3.00;;;1.20;;
68910;SDS011;55953;51.650;-0.522;2023-02-26T16:00:06;3.40;;;1.20;;
68910;SDS011;55953;51.650;-0.522;2023-02-26T16:02:39;3.20;;;1.40;;
68910;SDS011;55953;51.650;-0.522;2023-02-26T16:05:11;4.30;;;1.50;;
68910;SDS011;55953;51.650;-0.522;2023-02-26T16:07:41;2.30;;;0.80;;
68910;SDS011;55953;51.650;-0.522;2023-02-26T16:10:28;1.40;;;0.60;;
68910;SDS011;55953;51.650;-0.522;2023-02-26T16:13:00;2.20;;;1.00;;
68910;SDS011;55953;51.650;-0.522;2023-02-26T16:15:47;0.90;;;0.70;;
68910;SDS011;55953;51.650;-0.522;2023-02-26T16:18:17;2.00;;;0.70;;
68910;SDS011;55953;51.650;-0.522;2023-02-26T16:20:54;3.30;;;0.80;;
68910;SDS011;55953;51.650;-0.522;2023-02-26T16:23:37;1.70;;;0.90;;
68910;SDS011;55953;51.650;-0.522;2023-02-26T16:26:16;2.90;;;1.00;;
68910;SDS011;55953;51.650;-0.522;2023-02-26T16:28:56;3.30;;;1.00;;
68910;SDS011;55953;51.650;-0.522;2023-02-26T16:31:31;3.70;;;0.90;;
68910;SDS011;55953;51.650;-0.522;2023-02-26T16:34:20;2.50;;;0.80;;
68910;SDS011;55953;51.650;-0.522;2023-02-26T16:48:08;2.20;;;0.90;;
68910;SDS011;55953;51.650;-0.522;2023-02-26T16:50:42;2.60;;;1.00;;
68910;SDS011;55953;51.650;-0.522;2023-02-26T16:53:16;2.30;;;1.00;;
68910;SDS011;55953;51.650;-0.522;2023-02-26T16:55:51;4.30;;;1.60;;
68910;SDS011;55953;51.650;-0.522;2023-02-26T16:58:22;4.10;;;1.30;;
68910;SDS011;55953;51.650;-0.522;2023-02-26T17:00:57;3.00;;;1.10;;
68910;SDS011;55953;51.650;-0.522;2023-02-26T17:03:35;1.50;;;0.80;;
68910;SDS011;55953;51.650;-0.522;2023-02-26T17:06:09;3.30;;;1.00;;
68910;SDS011;55953;51.650;-0.522;2023-02-26T17:08:47;2.50;;;0.90;;
68910;SDS011;55953;51.650;-0.522;2023-02-26T17:14:13;2.10;;;1.10;;
68910;SDS011;55953;51.650;-0.522;2023-02-26T17:16:49;3.00;;;0.90;;
68910;SDS011;55953;51.650;-0.522;2023-02-26T17:19:18;2.10;;;1.00;;
68910;SDS011;55953;51.650;-0.522;2023-02-26T17:21:52;1.90;;;0.60;;
68910;SDS011;55953;51.650;-0.522;2023-02-26T17:24:43;1.50;;;1.00;;
68910;SDS011;55953;51.650;-0.522;2023-02-26T17:27:17;2.10;;;0.70;;
68910;SDS011;55953;51.650;-0.522;2023-02-26T17:29:56;3.00;;;0.80;;
68910;SDS011;55953;51.650;-0.522;2023-02-26T17:32:26;1.40;;;0.80;;
68910;SDS011;55953;51.650;-0.522;2023-02-26T17:34:54;4.60;;;1.10;;
68910;SDS011;55953;51.650;-0.522;2023-02-26T17:37:24;1.30;;;0.70;;
68910;SDS011;55953;51.650;-0.522;2023-02-26T17:40:05;2.80;;;1.30;;
68910;SDS011;55953;51.650;-0.522;2023-02-26T17:42:44;3.70;;;0.90;;
68910;SDS011;55953;51.650;-0.522;2023-02-26T17:45:12;4.80;;;1.30;;
68910;SDS011;55953;51.650;-0.522;2023-02-26T17:47:41;3.40;;;1.10;;
68910;SDS011;55953;51.650;-0.522;2023-02-26T17:50:23;4.00;;;1.70;;
68910;SDS011;55953;51.650;-0.522;2023-02-26T17:52:56;4.80;;;1.50;;
68910;SDS011;55953;51.650;-0.522;2023-02-26T17:55:25;5.20;;;1.60;;
68910;SDS011;55953;51.650;-0.522;2023-02-26T17:57:54;3.80;;;1.60;;
68910;SDS011;55953;51.650;-0.522;2023-02-26T18:00:23;7.70;;;2.00;;
68910;SDS011;55953;51.650;-0.522;2023-02-26T18:02:52;6.90;;;3.00;;
68910;SDS011;55953;51.650;-0.522;2023-02-26T18:05:20;5.20;;;2.30;;
68910;SDS011;55953;51.650;-0.522;2023-02-26T18:07:48;5.40;;;2.30;;
68910;SDS011;55953;51.650;-0.522;2023-02-26T18:10:20;4.90;;;1.90;;
68910;SDS011;55953;51.650;-0.522;2023-02-26T18:12:51;4.90;;;1.90;;
68910;SDS011;55953;51.650;-0.522;2023-02-26T18:15:19;4.40;;;1.90;;
68910;SDS011;55953;51.650;-0.522;2023-02-26T18:17:47;7.00;;;2.10;;
68910;SDS011;55953;51.650;-0.522;2023-02-26T18:20:20;7.50;;;2.50;;
68910;SDS011;55953;51.650;-0.522;2023-02-26T18:22:49;5.10;;;2.10;;
68910;SDS011;55953;51.650;-0.522;2023-02-26T18:25:17;3.30;;;1.80;;
68910;SDS011;55953;51.650;-0.522;2023-02-26T18:27:49;5.00;;;1.70;;
68910;SDS011;55953;51.650;-0.522;2023-02-26T18:30:24;3.90;;;1.60;;
68910;SDS011;55953;51.650;-0.522;2023-02-26T18:32:54;5.60;;;1.80;;
68910;SDS011;55953;51.650;-0.522;2023-02-26T18:35:24;3.20;;;1.70;;
68910;SDS011;55953;51.650;-0.522;2023-02-26T18:37:54;5.40;;;1.60;;